Wed, 27 Oct 2021 22:19:46 UTC

Information for RPM brotli-1.0.9-3.eln103.s390x.rpm

ID23382363
Namebrotli
Version1.0.9
Release3.eln103
Epoch
Archs390x
SummaryLossless compression algorithm
DescriptionBrotli is a generic-purpose lossless compression algorithm that compresses data using a combination of a modern variant of the LZ77 algorithm, Huffman coding and 2nd order context modeling, with a compression ratio comparable to the best currently available general-purpose compression methods. It is similar in speed with deflate but offers more dense compression.
Build Time2020-10-01 21:16:59 GMT
Size342,945
58838ac0bcd728c0cde2f01e8e76f70a
LicenseMIT
Buildrooteln-build-23123042-2178793
Provides
brotli = 1.0.9-3.eln103
brotli(s390-64) = 1.0.9-3.eln103
Obsoletes No Obsoletes
Conflicts No Conflicts
Requires
libbrotli(s390-64) = 1.0.9-3.eln103
libc.so.6()(64bit)
libc.so.6(GLIBC_2.2)(64bit)
libc.so.6(GLIBC_2.3.4)(64bit)
libc.so.6(GLIBC_2.4)(64bit)
libm.so.6()(64bit)
libm.so.6(GLIBC_2.29)(64bit)
rpmlib(CompressedFileNames) <= 3.0.4-1
rpmlib(FileDigests) <= 4.6.0-1
rpmlib(PayloadFilesHavePrefix) <= 4.0-1
rpmlib(PayloadIsZstd) <= 5.4.18-1
rtld(GNU_HASH)
Recommends No Recommends
Suggests No Suggests
Supplements No Supplements
Enhances No Enhances
Files
1 through 4 of 4
Name ascending sort Size
/usr/bin/brotli828,912
/usr/lib/.build-id0
/usr/lib/.build-id/200
/usr/lib/.build-id/20/4ee7bd58101ac0cb2e7dba87329acd0772367c26
Component of
Page:
1 through 50 of 896 >>>
Buildroot descending sort Created State
eln-build-24422237-2543494 2020-12-07 15:36:49 expired
eln-build-24421241-2542618 2020-12-07 13:59:45 expired
eln-build-24366175-2529479 2020-12-04 23:28:26 expired
eln-build-24364347-2528102 2020-12-04 19:13:30 expired
eln-build-24363972-2527975 2020-12-04 18:46:16 expired
eln-build-24363843-2527905 2020-12-04 18:32:49 expired
eln-build-24358972-2526433 2020-12-04 12:46:20 expired
eln-build-24352807-2524502 2020-12-04 05:49:55 expired
eln-build-24349892-2524342 2020-12-04 02:26:56 expired
eln-build-24347882-2523788 2020-12-03 23:29:20 expired
eln-build-24329753-2517777 2020-12-03 04:01:35 expired
eln-build-24322085-2516473 2020-12-02 23:04:55 expired
eln-build-24318703-2516137 2020-12-02 21:40:13 expired
eln-build-24315508-2515703 2020-12-02 20:19:56 expired
eln-build-24301577-2512164 2020-12-02 11:04:50 expired
eln-build-24300465-2512100 2020-12-02 10:06:52 expired
eln-build-24284287-2506553 2020-12-01 14:34:43 expired
eln-build-24281736-2505529 2020-12-01 11:13:22 expired
eln-build-24281705-2505474 2020-12-01 11:00:31 expired
eln-build-24281378-2505043 2020-12-01 10:12:44 expired
eln-build-24280162-2504600 2020-12-01 08:03:15 expired
eln-build-24277831-2504251 2020-12-01 06:03:11 expired
eln-build-24272703-2503172 2020-12-01 01:33:31 expired
eln-build-24271169-2502593 2020-11-30 23:14:23 expired
eln-build-24260529-2494134 2020-11-29 16:12:01 expired
eln-build-24255636-2487410 2020-11-28 03:53:01 expired
eln-build-24253452-2484761 2020-11-27 14:28:41 expired
eln-build-24252907-2484421 2020-11-27 11:46:25 expired
eln-build-24252549-2483734 2020-11-27 09:58:31 expired
eln-build-24250234-2480967 2020-11-26 20:01:03 expired
eln-build-24249813-2480562 2020-11-26 17:34:50 expired
eln-build-24249538-2480200 2020-11-26 16:00:18 expired
eln-build-24249247-2479868 2020-11-26 14:59:01 expired
eln-build-24247979-2478340 2020-11-26 09:13:08 expired
eln-build-24247607-2477702 2020-11-26 07:43:05 expired
eln-build-24247590-2477647 2020-11-26 07:30:41 expired
eln-build-24245079-2474630 2020-11-25 15:24:19 expired
eln-build-24243869-2473262 2020-11-25 10:37:47 expired
eln-build-24243806-2473214 2020-11-25 10:24:56 expired
eln-build-24243562-2473038 2020-11-25 09:56:16 expired
eln-build-24243349-2472871 2020-11-25 09:33:52 expired
eln-build-24243328-2472807 2020-11-25 09:29:34 expired
eln-build-24243320-2472807 2020-11-25 09:28:02 expired
eln-build-24243301-2472807 2020-11-25 09:25:34 expired
eln-build-24243138-2472748 2020-11-25 09:10:50 expired
eln-build-24243068-2472627 2020-11-25 09:01:33 expired
eln-build-24243049-2472627 2020-11-25 08:56:42 expired
eln-build-24243035-2472534 2020-11-25 08:50:36 expired
eln-build-24242956-2472534 2020-11-25 08:43:59 expired
eln-build-24242630-2472229 2020-11-25 06:34:41 expired